Main page
METAR-TAF:

METAR-TAF

Airports :

Nawabshah, Pakistan

Nawabshah Airport

latitude: 26-15N, longitude: 068-22E, elevation: 37 m

Current weather observation

The report was made 37 minutes ago, at 20:00 UTC
Wind 4 kt from the South
Temperature 28°C
Humidity 51%
Pressure
haze

METAR: OPNH 302000Z 18004KT 4000M HZ NSC 28/17 Q.1006 NOSIG

Time: 01:37 (20:37 UTC)

Forecast

The report was made 5 hours and 7 minutes ago, at 15:30 UTC
Forecast valid from 30 at 18 UTC to 01 at 24 UTC
Wind 5 kt from the Northwest
Visibility: 4000 m
haze
From 01 at 0500 UTC
Wind 7 kt from the West
Visibility: 4000 m
haze
From 01 at 1800 UTC
Wind 5 kt from the Southwest
Visibility: 4000 m
Scattered clouds at a height of 3000 ft
Scattered clouds at a height of 10000 ft
haze

TAF: OPNH 301530Z 3018/0124 31005KT 4000 HZ NSC FM010500 27007KT 4000 HZ NSC FM011800 23005KT 4000 HZ SCT030 SCT100

Weather observations and forecasts of more than 4000 airports (METAR and TAF reports).

The available stations are represented by yellow and red dots on the map.

Hover mouse over dot to see the name of the station.

Then click to see weather observations and forecasts.

To change the map : click on the green buttons with a black cross to zoom in, on the green button with a dash to zoom out, or on the green arrows for adjacent maps.


METAR-TAF: